createdAt,value
2019-05-15T00:01:54.593Z,6.72
2019-05-15T00:04:42.818Z,6.71
2019-05-15T00:07:31.097Z,6.65
2019-05-15T00:10:19.402Z,6.65
2019-05-15T00:13:09.293Z,6.65
2019-05-15T00:15:55.055Z,6.61
2019-05-15T00:18:42.675Z,6.59
2019-05-15T00:21:31.057Z,6.52
2019-05-15T00:24:19.265Z,6.47
2019-05-15T00:27:08.160Z,6.42
2019-05-15T00:29:55.261Z,6.38
2019-05-15T00:32:43.089Z,6.38
2019-05-15T00:35:30.804Z,6.35
2019-05-15T00:38:18.718Z,6.29
2019-05-15T00:41:05.878Z,6.18
2019-05-15T00:43:53.451Z,6.18
2019-05-15T00:46:41.006Z,6.13
2019-05-15T00:49:28.954Z,6.08
2019-05-15T00:52:18.038Z,6.06
2019-05-15T00:55:04.853Z,6.07
2019-05-15T00:57:52.366Z,6.04
2019-05-15T01:00:42.150Z,6.01
2019-05-15T01:03:30.018Z,5.95
2019-05-15T01:06:21.261Z,5.96
2019-05-15T01:09:09.338Z,5.92
2019-05-15T01:11:58.695Z,5.90
2019-05-15T01:14:44.660Z,5.86
2019-05-15T01:17:32.666Z,5.79
2019-05-15T01:20:20.245Z,5.79
2019-05-15T01:23:08.817Z,5.83
2019-05-15T01:25:55.850Z,5.78
2019-05-15T01:28:43.576Z,5.74
2019-05-15T01:31:31.296Z,5.69
2019-05-15T01:34:19.133Z,5.66
2019-05-15T01:37:08.561Z,5.46
2019-05-15T01:39:54.234Z,5.46
2019-05-15T01:42:42.378Z,5.43
2019-05-15T01:45:30.391Z,5.34
2019-05-15T01:48:19.064Z,5.27
2019-05-15T01:51:06.452Z,5.22
2019-05-15T01:53:54.358Z,5.13
2019-05-15T01:56:42.516Z,5.09
2019-05-15T01:59:30.247Z,5.06
2019-05-15T02:02:18.722Z,4.98
2019-05-15T02:05:08.282Z,4.96
2019-05-15T02:07:53.890Z,4.93
2019-05-15T02:10:41.516Z,4.86
2019-05-15T02:13:29.090Z,4.77
2019-05-15T02:16:19.000Z,4.80
2019-05-15T02:19:04.488Z,4.77
2019-05-15T02:21:52.324Z,4.77
2019-05-15T02:24:40.799Z,4.76
2019-05-15T02:27:29.425Z,4.69
2019-05-15T02:30:27.984Z,4.63
2019-05-15T02:33:04.081Z,4.56
2019-05-15T02:35:51.545Z,4.59
2019-05-15T02:38:41.005Z,4.60
2019-05-15T02:41:29.829Z,4.58
2019-05-15T02:44:15.359Z,4.57
2019-05-15T02:47:03.033Z,4.51
2019-05-15T02:49:50.714Z,4.53
2019-05-15T02:52:40.714Z,4.54
2019-05-15T02:55:29.410Z,4.52
2019-05-15T02:58:13.819Z,4.50
2019-05-15T03:01:01.577Z,4.43
2019-05-15T03:03:49.926Z,4.35
2019-05-15T03:06:39.018Z,4.28
2019-05-15T03:09:24.832Z,4.24
2019-05-15T03:12:13.036Z,4.25
2019-05-15T03:15:01.526Z,4.18
2019-05-15T03:17:49.574Z,4.14
2019-05-15T03:20:38.829Z,4.12
2019-05-15T03:23:25.217Z,4.15
2019-05-15T03:26:13.391Z,4.13
2019-05-15T03:29:01.554Z,4.09
2019-05-15T03:32:05.984Z,4.11
2019-05-15T03:34:46.236Z,4.16
2019-05-15T03:37:24.929Z,4.18
2019-05-15T03:40:12.787Z,4.20
2019-05-15T03:43:00.298Z,4.24
2019-05-15T03:45:49.323Z,4.22
2019-05-15T03:48:39.774Z,4.20
2019-05-15T03:51:28.892Z,4.21
2019-05-15T03:54:14.527Z,4.27
2019-05-15T03:57:02.379Z,4.30
2019-05-15T03:59:50.139Z,4.32
2019-05-15T04:02:39.543Z,4.28
2019-05-15T04:05:25.667Z,4.23
2019-05-15T04:08:13.418Z,4.20
2019-05-15T04:11:01.231Z,4.12
2019-05-15T04:13:50.162Z,4.13
2019-05-15T04:16:39.112Z,4.16
2019-05-15T04:19:24.623Z,4.26
2019-05-15T04:22:13.078Z,4.33
2019-05-15T04:25:00.929Z,4.37
2019-05-15T04:27:49.342Z,4.42
2019-05-15T04:30:39.538Z,4.44
2019-05-15T04:33:29.339Z,4.49
2019-05-15T04:36:15.094Z,4.57
2019-05-15T04:39:02.688Z,4.66
2019-05-15T04:41:50.312Z,4.77
2019-05-15T04:44:39.552Z,4.85
2019-05-15T04:47:29.942Z,4.96
2019-05-15T04:50:13.786Z,5.07
2019-05-15T04:53:01.822Z,5.18
2019-05-15T04:55:49.754Z,5.29
2019-05-15T04:58:39.427Z,5.44
2019-05-15T05:01:28.700Z,5.59
2019-05-15T05:04:13.318Z,5.73
2019-05-15T05:07:01.005Z,5.87
2019-05-15T05:09:49.049Z,5.96
2019-05-15T05:12:40.975Z,6.09
2019-05-15T05:15:24.132Z,6.22
2019-05-15T05:18:11.730Z,6.31
2019-05-15T05:20:59.403Z,6.42
2019-05-15T05:23:48.394Z,6.55
2019-05-15T05:26:34.582Z,6.63
2019-05-15T05:29:22.840Z,6.77
2019-05-15T05:32:10.854Z,6.95
2019-05-15T05:34:58.937Z,7.11
2019-05-15T05:37:48.065Z,7.23
2019-05-15T05:40:34.393Z,7.60
2019-05-15T05:43:22.771Z,7.60
2019-05-15T05:46:10.644Z,7.77
2019-05-15T05:48:58.419Z,7.77
2019-05-15T05:51:48.119Z,7.86
2019-05-15T05:54:34.657Z,7.86
2019-05-15T05:57:22.456Z,7.80
2019-05-15T06:00:10.163Z,7.86
2019-05-15T06:02:59.130Z,8.01
2019-05-15T06:05:46.180Z,8.18
2019-05-15T06:08:33.897Z,8.33
2019-05-15T06:11:21.661Z,8.43
2019-05-15T06:14:09.391Z,8.59
2019-05-15T06:16:58.878Z,9.12
2019-05-15T06:19:44.549Z,9.12
2019-05-15T06:22:32.439Z,9.86
2019-05-15T06:25:20.711Z,9.86
2019-05-15T06:28:09.096Z,10.03
2019-05-15T06:31:00.345Z,10.28
2019-05-15T06:33:44.321Z,10.57
2019-05-15T06:36:31.966Z,10.73
2019-05-15T06:39:19.479Z,10.72
2019-05-15T06:42:08.811Z,11.03
2019-05-15T06:44:55.210Z,11.24
2019-05-15T06:47:43.190Z,11.56
2019-05-15T06:50:34.926Z,11.64
2019-05-15T06:53:22.569Z,11.66
2019-05-15T06:56:10.002Z,11.65
2019-05-15T06:58:58.257Z,11.55
2019-05-15T07:01:48.129Z,11.47
2019-05-15T07:04:34.218Z,11.44
2019-05-15T07:07:22.544Z,11.25
2019-05-15T07:10:10.754Z,11.26
2019-05-15T07:12:58.609Z,11.28
2019-05-15T07:15:46.315Z,11.39
2019-05-15T07:18:34.242Z,11.51
2019-05-15T07:21:22.052Z,11.70
2019-05-15T07:24:10.106Z,11.88
2019-05-15T07:26:59.183Z,12.08
2019-05-15T07:29:45.644Z,12.19
2019-05-15T07:32:33.448Z,12.31
2019-05-15T07:35:24.231Z,12.36
2019-05-15T07:38:08.862Z,12.43
2019-05-15T07:41:01.124Z,12.48
2019-05-15T07:43:44.498Z,12.62
2019-05-15T07:46:33.154Z,12.62
2019-05-15T07:49:20.689Z,12.67
2019-05-15T07:52:08.717Z,12.73
2019-05-15T07:54:58.249Z,12.82
2019-05-15T07:57:44.355Z,12.88
2019-05-15T08:00:32.565Z,12.95
2019-05-15T08:03:20.783Z,13.06
2019-05-15T08:06:09.168Z,13.17
2019-05-15T08:08:59.044Z,13.09
2019-05-15T08:11:44.333Z,13.10
2019-05-15T08:14:32.228Z,13.25
2019-05-15T08:17:22.101Z,13.56
2019-05-15T08:20:09.151Z,13.83
2019-05-15T08:22:58.262Z,14.16
2019-05-15T08:25:45.322Z,14.49
2019-05-15T08:28:33.525Z,14.83
2019-05-15T08:31:21.526Z,15.07
2019-05-15T08:34:15.951Z,15.32
2019-05-15T08:36:58.331Z,15.32
2019-05-15T08:39:45.033Z,15.42
2019-05-15T08:42:33.281Z,15.67
2019-05-15T08:45:20.778Z,16.00
2019-05-15T08:48:09.359Z,16.22
2019-05-15T08:50:57.872Z,16.42
2019-05-15T08:53:44.435Z,16.63
2019-05-15T08:56:31.966Z,16.72
2019-05-15T08:59:20.057Z,16.53
2019-05-15T09:02:08.390Z,16.63
2019-05-15T09:04:58.035Z,16.70
2019-05-15T09:07:43.775Z,16.80
2019-05-15T09:10:31.506Z,17.17
2019-05-15T09:13:19.429Z,17.48
2019-05-15T09:16:08.312Z,17.49
2019-05-15T09:18:55.435Z,17.58
2019-05-15T09:21:43.272Z,17.64
2019-05-15T09:24:31.370Z,17.65
2019-05-15T09:27:19.464Z,17.84
2019-05-15T09:30:08.684Z,18.25
2019-05-15T09:32:55.062Z,18.76
2019-05-15T09:35:42.681Z,19.20
2019-05-15T09:38:30.344Z,19.34
2019-05-15T09:41:18.076Z,19.67
2019-05-15T09:44:07.995Z,19.74
2019-05-15T09:46:53.952Z,19.85
2019-05-15T09:49:41.538Z,20.21
2019-05-15T09:52:30.075Z,19.48
2019-05-15T09:55:19.843Z,19.47
2019-05-15T09:58:08.423Z,19.22
2019-05-15T10:00:55.891Z,19.47
2019-05-15T10:03:44.669Z,19.46
2019-05-15T10:06:31.727Z,18.96
2019-05-15T10:09:19.560Z,18.64
2019-05-15T10:12:09.102Z,18.63
2019-05-15T10:14:55.017Z,19.05
2019-05-15T10:17:43.176Z,19.52
2019-05-15T10:20:31.293Z,19.71
2019-05-15T10:23:20.125Z,19.97
2019-05-15T10:26:13.917Z,20.47
2019-05-15T10:28:58.272Z,20.93
2019-05-15T10:31:43.968Z,21.38
2019-05-15T10:34:32.254Z,21.59
2019-05-15T10:37:19.548Z,21.87
2019-05-15T10:40:09.091Z,22.20
2019-05-15T10:42:54.877Z,22.59
2019-05-15T10:45:43.592Z,22.97
2019-05-15T10:48:31.211Z,23.32
2019-05-15T10:51:19.854Z,23.39
2019-05-15T10:54:08.602Z,23.14
2019-05-15T10:56:54.812Z,21.96
2019-05-15T10:59:42.467Z,20.88
2019-05-15T11:02:30.031Z,19.80
2019-05-15T11:05:18.086Z,18.85
2019-05-15T11:08:08.116Z,18.19
2019-05-15T11:10:53.622Z,17.70
2019-05-15T11:13:41.205Z,17.93
2019-05-15T11:16:28.839Z,18.34
2019-05-15T11:19:19.907Z,17.98
2019-05-15T11:22:09.104Z,17.57
2019-05-15T11:24:55.203Z,17.21
2019-05-15T11:27:43.127Z,16.79
2019-05-15T11:30:30.901Z,16.47
2019-05-15T11:33:19.301Z,16.31
2019-05-15T11:36:06.507Z,16.41
2019-05-15T11:38:53.883Z,16.66
2019-05-15T11:41:41.902Z,16.94
2019-05-15T11:44:30.378Z,17.84
2019-05-15T11:47:18.492Z,18.23
2019-05-15T11:50:08.379Z,18.38
2019-05-15T11:52:53.984Z,18.29
2019-05-15T11:55:41.613Z,18.79
2019-05-15T11:58:29.113Z,19.42
2019-05-15T12:01:19.257Z,19.35
2019-05-15T12:04:04.595Z,18.91
2019-05-15T12:07:01.578Z,18.54
2019-05-15T12:09:40.099Z,18.61
2019-05-15T12:12:31.817Z,19.03
2019-05-15T12:15:15.426Z,19.61
2019-05-15T12:18:03.157Z,20.16
2019-05-15T12:20:50.787Z,20.12
2019-05-15T12:23:38.907Z,20.47
2019-05-15T12:26:29.152Z,21.00
2019-05-15T12:29:14.428Z,21.59
2019-05-15T12:32:21.782Z,21.82
2019-05-15T12:34:50.185Z,22.23
2019-05-15T12:37:39.991Z,22.55
2019-05-15T13:00:00.507Z,19.53
2019-05-15T13:02:49.196Z,19.64
2019-05-15T13:05:38.909Z,20.01
2019-05-15T13:08:24.293Z,20.39
2019-05-15T13:11:15.183Z,20.41
2019-05-15T13:14:00.577Z,20.28
2019-05-15T13:16:48.244Z,19.95
2019-05-15T13:19:38.824Z,19.65
2019-05-15T13:22:24.905Z,19.16
2019-05-15T13:25:12.893Z,18.99
2019-05-15T13:28:01.146Z,18.72
2019-05-15T13:30:49.173Z,18.37
2019-05-15T13:33:38.653Z,18.13
2019-05-15T13:36:24.200Z,17.85
2019-05-15T13:39:12.533Z,17.84
2019-05-15T13:42:00.999Z,17.73
2019-05-15T13:44:48.243Z,17.64
2019-05-15T13:47:35.821Z,17.58
2019-05-15T13:50:24.057Z,17.67
2019-05-15T13:53:12.320Z,17.71
2019-05-15T13:56:00.030Z,17.74
2019-05-15T13:58:48.145Z,17.83
2019-05-15T14:01:35.680Z,17.76
2019-05-15T14:04:23.316Z,17.85
2019-05-15T14:07:10.863Z,18.01
2019-05-15T14:09:59.943Z,18.21
2019-05-15T14:12:47.856Z,18.35
2019-05-15T14:15:34.795Z,18.39
2019-05-15T14:18:22.620Z,18.70
2019-05-15T14:21:10.880Z,18.84
2019-05-15T14:24:01.443Z,18.82
2019-05-15T14:26:48.528Z,18.63
2019-05-15T14:29:34.881Z,18.58
2019-05-15T14:32:34.442Z,18.40
2019-05-15T14:35:11.024Z,18.24
2019-05-15T14:38:06.344Z,18.15
2019-05-15T14:40:48.213Z,18.15
2019-05-15T14:43:34.027Z,18.10
2019-05-15T14:46:21.747Z,18.00
2019-05-15T14:49:10.127Z,17.86
2019-05-15T14:52:08.417Z,17.77
2019-05-15T14:54:45.279Z,17.65
2019-05-15T14:57:33.501Z,17.69
2019-05-15T15:00:21.196Z,17.67
2019-05-15T15:03:09.602Z,17.83
2019-05-15T15:06:01.458Z,18.12
2019-05-15T15:08:48.751Z,18.47
2019-05-15T15:11:34.953Z,18.67
2019-05-15T15:14:23.039Z,18.77
2019-05-15T15:17:11.792Z,18.80
2019-05-15T15:20:00.185Z,17.41
2019-05-15T15:22:48.596Z,18.88
2019-05-15T15:25:34.970Z,18.89
2019-05-15T15:28:23.233Z,18.78
2019-05-15T15:31:10.645Z,18.79
2019-05-15T15:33:58.901Z,18.63
2019-05-15T15:36:48.328Z,18.51
2019-05-15T15:39:34.517Z,18.38
2019-05-15T15:42:23.249Z,18.19
2019-05-15T15:45:11.459Z,18.22
2019-05-15T15:47:59.275Z,18.35
2019-05-15T15:50:48.784Z,18.90
2019-05-15T15:53:35.393Z,20.01
2019-05-15T15:56:23.537Z,20.97
2019-05-15T15:59:10.943Z,21.07
2019-05-15T16:01:59.932Z,20.88
2019-05-15T16:04:48.395Z,20.20
2019-05-15T16:07:38.039Z,19.57
2019-05-15T16:10:24.765Z,19.07
2019-05-15T16:13:12.858Z,18.88
2019-05-15T16:16:00.414Z,18.69
2019-05-15T16:18:49.266Z,18.59
2019-05-15T16:21:39.197Z,18.29
2019-05-15T16:24:24.559Z,18.01
2019-05-15T16:27:11.978Z,17.64
2019-05-15T16:29:59.409Z,17.35
2019-05-15T16:32:46.951Z,17.24
2019-05-15T16:35:34.699Z,17.29
2019-05-15T16:38:22.414Z,17.28
2019-05-15T16:41:10.177Z,17.35
2019-05-15T16:43:58.437Z,17.40
2019-05-15T16:46:48.136Z,17.55
2019-05-15T16:49:34.037Z,17.57
2019-05-15T16:52:21.902Z,17.57
2019-05-15T16:55:09.831Z,17.64
2019-05-15T16:57:58.537Z,17.88
2019-05-15T17:00:44.939Z,18.12
2019-05-15T17:03:33.238Z,18.19
2019-05-15T17:06:21.198Z,18.13
2019-05-15T17:09:20.363Z,17.97
2019-05-15T17:11:58.189Z,17.94
2019-05-15T17:14:45.257Z,17.80
2019-05-15T17:17:32.733Z,17.72
2019-05-15T17:20:20.945Z,17.62
2019-05-15T17:23:09.209Z,17.53
2019-05-15T17:25:58.137Z,17.32
2019-05-15T17:28:44.808Z,17.01
2019-05-15T17:31:33.119Z,16.77
2019-05-15T17:34:21.108Z,16.65
2019-05-15T17:37:09.067Z,16.49
2019-05-15T17:39:58.790Z,16.31
2019-05-15T17:42:44.119Z,16.09
2019-05-15T17:45:31.838Z,15.81
2019-05-15T17:48:19.791Z,15.61
2019-05-15T17:51:09.101Z,15.51
2019-05-15T17:53:58.154Z,15.32
2019-05-15T17:56:43.501Z,15.20
2019-05-15T17:59:31.294Z,15.04
2019-05-15T18:02:19.505Z,14.89
2019-05-15T18:05:07.257Z,14.76
2019-05-15T18:07:58.166Z,14.65
2019-05-15T18:10:43.648Z,14.53
2019-05-15T18:13:31.049Z,14.39
2019-05-15T18:16:19.220Z,14.30
2019-05-15T18:19:08.310Z,14.19
2019-05-15T18:21:56.299Z,14.10
2019-05-15T18:24:43.738Z,13.98
2019-05-15T18:27:31.582Z,13.94
2019-05-15T18:30:19.188Z,13.88
2019-05-15T18:33:08.626Z,13.82
2019-05-15T18:35:55.227Z,13.79
2019-05-15T18:38:43.021Z,13.73
2019-05-15T18:41:30.797Z,13.81
2019-05-15T18:44:18.956Z,14.04
2019-05-15T18:47:08.655Z,14.16
2019-05-15T18:50:05.769Z,14.22
2019-05-15T18:52:43.595Z,14.38
2019-05-15T18:55:34.150Z,14.56
2019-05-15T18:58:22.256Z,14.47
2019-05-15T19:01:10.205Z,14.20
2019-05-15T19:03:58.661Z,13.98
2019-05-15T19:06:46.594Z,13.72
2019-05-15T19:09:34.730Z,13.50
2019-05-15T19:12:22.443Z,13.30
2019-05-15T19:15:10.237Z,13.14
2019-05-15T19:17:58.557Z,13.03
2019-05-15T19:20:45.385Z,12.93
2019-05-15T19:23:33.293Z,12.87
2019-05-15T19:26:21.313Z,12.77
2019-05-15T19:29:08.957Z,12.73
2019-05-15T19:31:56.453Z,12.64
2019-05-15T19:34:44.076Z,12.59
2019-05-15T19:37:33.804Z,12.55
2019-05-15T19:40:20.039Z,12.50
2019-05-15T19:43:09.195Z,12.46
2019-05-15T19:45:58.500Z,12.44
2019-05-15T19:48:44.103Z,12.42
2019-05-15T19:51:32.087Z,12.41
2019-05-15T19:54:19.949Z,12.37
2019-05-15T19:57:08.134Z,12.33
2019-05-15T19:59:58.129Z,12.29
2019-05-15T20:02:44.021Z,12.28
2019-05-15T20:05:31.785Z,12.23
2019-05-15T20:08:19.682Z,12.21
2019-05-15T20:11:10.287Z,12.20
2019-05-15T20:13:55.550Z,12.16
2019-05-15T20:16:43.100Z,12.17
2019-05-15T20:19:31.402Z,12.18
2019-05-15T20:22:19.320Z,12.17
2019-05-15T20:25:08.293Z,12.14
2019-05-15T20:27:54.671Z,12.13
2019-05-15T20:30:42.437Z,12.13
2019-05-15T20:33:30.683Z,12.08
2019-05-15T20:36:18.725Z,12.03
2019-05-15T20:39:08.285Z,12.02
2019-05-15T20:41:53.528Z,12.02
2019-05-15T20:44:41.067Z,12.02
2019-05-15T20:47:28.919Z,11.99
2019-05-15T20:50:19.161Z,11.97
2019-05-15T20:53:04.956Z,11.91
2019-05-15T20:55:53.320Z,11.88
2019-05-15T20:58:40.878Z,11.81
2019-05-15T21:01:28.983Z,11.78
2019-05-15T21:04:22.453Z,11.74
2019-05-15T21:07:05.015Z,11.70
2019-05-15T21:09:52.816Z,11.65
2019-05-15T21:12:41.472Z,11.64
2019-05-15T21:15:28.344Z,11.60
2019-05-15T21:18:17.020Z,11.58
2019-05-15T21:21:03.679Z,11.60
2019-05-15T21:23:52.016Z,11.64
2019-05-15T21:26:39.540Z,11.64
2019-05-15T21:29:27.355Z,11.62
2019-05-15T21:32:15.379Z,11.57
2019-05-15T21:35:03.404Z,11.55
2019-05-15T21:37:51.209Z,11.54
2019-05-15T21:40:39.077Z,11.50
2019-05-15T21:43:28.704Z,11.48
2019-05-15T21:46:18.760Z,11.47
2019-05-15T21:49:04.017Z,11.46
2019-05-15T21:51:52.293Z,11.44
2019-05-15T21:54:39.938Z,11.40
2019-05-15T21:57:34.106Z,11.36
2019-05-15T22:00:18.957Z,11.35
2019-05-15T22:03:07.258Z,11.34
2019-05-15T22:05:54.904Z,11.33
2019-05-15T22:08:42.630Z,11.36
2019-05-15T22:11:30.321Z,11.39
2019-05-15T22:14:18.283Z,11.40
2019-05-15T22:17:09.065Z,11.42
2019-05-15T22:19:54.265Z,11.37
2019-05-15T22:22:41.866Z,11.35
2019-05-15T22:25:29.544Z,11.35
2019-05-15T22:28:17.172Z,11.32
2019-05-15T22:31:05.125Z,11.29
2019-05-15T22:33:53.471Z,11.25
2019-05-15T22:36:41.480Z,11.20
2019-05-15T22:39:29.322Z,11.17
2019-05-15T22:42:18.315Z,11.13
2019-05-15T22:45:04.785Z,11.06
2019-05-15T22:47:52.374Z,11.06
2019-05-15T22:50:40.817Z,10.99
2019-05-15T22:53:28.984Z,10.93
2019-05-15T22:56:29.687Z,10.88
2019-05-15T22:59:14.758Z,10.83
2019-05-15T23:02:02.554Z,10.80
2019-05-15T23:04:50.560Z,10.76
2019-05-15T23:07:38.926Z,10.71
2019-05-15T23:10:28.941Z,10.63
2019-05-15T23:13:14.432Z,10.54
2019-05-15T23:16:02.020Z,10.46
2019-05-15T23:18:50.358Z,10.39
2019-05-15T23:21:40.266Z,10.27
2019-05-15T23:24:28.038Z,10.21
2019-05-15T23:27:14.002Z,10.12
2019-05-15T23:30:01.680Z,10.04
2019-05-15T23:32:49.551Z,9.97
2019-05-15T23:35:41.276Z,9.90
2019-05-15T23:38:27.878Z,9.85
2019-05-15T23:41:13.190Z,9.81
2019-05-15T23:44:00.894Z,9.79
2019-05-15T23:46:49.140Z,9.77
2019-05-15T23:49:38.176Z,9.76
2019-05-15T23:52:25.084Z,9.78
2019-05-15T23:55:13.216Z,9.75
2019-05-15T23:58:00.646Z,9.77
